Weather at Aalen-Heidenheim/Elchingen Airfield

Public forecast

Using degrees Celsius for public forecast. Weather courtesy of forecast.io.

Closest aviation weather report (METAR) to Aalen-Heidenheim/Elchingen Airfield

Closest report is Adolf Würth Airport, 27.9 nm (51.6 km) NW.

2022/11/29 11:20 (retrieved 25 minutes ago)

EDTY 291120Z 34003KT 300V010 7000 -DZ OVC004 06/05 Q1016

Closest aviation forecast (TAF) to Aalen-Heidenheim/Elchingen Airfield

Closest forecast is Ansbach Army Heliport, 35.1 nm (65.0 km) NNE.

2022/11/29 07:06 (retrieved 5 hours ago)

TAF ETEB 290700Z 2907/3013 VRB06KT 0800 FG VV001 QNH2996INS BECMG 2912/2913 VRB06KT 0800 -SHRA FG OVC002 QNH2998INS BECMG 2916/2917 VRB06KT 1000 BR OVC003 QNH3000INS BECMG 2919/2920 VRB06KT 1000 -SHRA BR OVC003 QNH3003INS BECMG 3010/3011 VRB06KT 0800 FG OVC004 QNH3007INS TX05/2914Z TN03/3007Z